createdAt,value
2022-10-19T00:01:15.397Z,94.31
2022-10-19T00:03:43.984Z,94.68
2022-10-19T00:06:25.803Z,94.24
2022-10-19T00:08:56.436Z,94.26
2022-10-19T00:11:24.403Z,93.64
2022-10-19T00:13:52.725Z,94.03
2022-10-19T00:16:20.802Z,93.87
2022-10-19T00:18:48.279Z,94.14
2022-10-19T00:21:17.921Z,94.09
2022-10-19T00:23:45.893Z,94.43
2022-10-19T00:26:13.725Z,94.46
2022-10-19T00:28:42.880Z,94.20
2022-10-19T00:31:13.249Z,93.51
2022-10-19T00:33:42.664Z,93.24
2022-10-19T00:36:23.108Z,92.96
2022-10-19T00:38:51.063Z,92.10
2022-10-19T00:41:19.859Z,91.27
2022-10-19T00:44:08.221Z,91.73
2022-10-19T00:46:39.060Z,91.16
2022-10-19T00:49:14.467Z,91.14
2022-10-19T00:51:45.422Z,90.95
2022-10-19T00:54:13.040Z,90.17
2022-10-19T00:56:43.266Z,89.78
2022-10-19T00:59:11.132Z,89.65
2022-10-19T01:01:38.955Z,89.79
2022-10-19T01:04:06.675Z,90.16
2022-10-19T01:06:34.429Z,89.05
2022-10-19T01:09:27.693Z,88.84
2022-10-19T01:12:01.397Z,88.84
2022-10-19T01:14:37.884Z,87.53
2022-10-19T01:17:39.080Z,87.65
2022-10-19T01:20:25.656Z,88.20
2022-10-19T01:23:24.325Z,88.03
2022-10-19T01:26:26.607Z,88.04
2022-10-19T01:29:08.755Z,87.61
2022-10-19T01:32:14.733Z,86.70
2022-10-19T01:34:52.416Z,87.14
2022-10-19T01:37:25.376Z,84.77
2022-10-19T01:39:57.967Z,84.45
2022-10-19T01:42:32.621Z,82.87
2022-10-19T01:45:09.337Z,83.00
2022-10-19T01:48:04.775Z,82.24
2022-10-19T01:50:37.570Z,82.25
2022-10-19T01:53:07.539Z,82.13
2022-10-19T01:55:35.144Z,82.65
2022-10-19T01:58:08.299Z,82.58
2022-10-19T02:00:39.421Z,82.89
2022-10-19T02:03:07.671Z,83.42
2022-10-19T02:05:37.315Z,83.99
2022-10-19T02:08:11.301Z,84.02
2022-10-19T02:10:40.317Z,84.75
2022-10-19T02:13:08.274Z,84.97
2022-10-19T02:15:37.577Z,84.86
2022-10-19T02:18:07.211Z,85.27
2022-10-19T02:20:37.079Z,85.88
2022-10-19T02:23:05.534Z,85.92
2022-10-19T02:25:33.729Z,86.28
2022-10-19T02:28:02.768Z,86.46
2022-10-19T02:30:30.517Z,86.41
2022-10-19T02:32:57.990Z,86.71
2022-10-19T02:35:25.574Z,87.15
2022-10-19T02:38:05.781Z,88.00
2022-10-19T02:40:37.814Z,87.98
2022-10-19T02:43:10.821Z,87.75
2022-10-19T02:45:46.937Z,88.08
2022-10-19T02:48:19.943Z,88.92
2022-10-19T02:50:48.502Z,88.58
2022-10-19T02:53:16.701Z,88.86
2022-10-19T02:55:44.670Z,88.96
2022-10-19T02:58:12.385Z,88.70
2022-10-19T03:00:40.093Z,88.03
2022-10-19T03:03:07.729Z,88.54
2022-10-19T03:05:35.310Z,88.94
2022-10-19T03:08:02.797Z,88.57
2022-10-19T03:10:30.277Z,89.05
2022-10-19T03:12:59.912Z,89.44
2022-10-19T03:15:29.937Z,89.64
2022-10-19T03:17:57.759Z,90.03
2022-10-19T03:20:25.482Z,90.07
2022-10-19T03:25:26.452Z,90.10
2022-10-19T03:27:53.815Z,89.88
2022-10-19T03:30:21.181Z,90.13
2022-10-19T03:32:48.659Z,90.54
2022-10-19T03:35:16.261Z,91.19
2022-10-19T03:37:43.864Z,91.24
2022-10-19T03:40:11.576Z,90.71
2022-10-19T03:42:38.939Z,90.11
2022-10-19T03:45:07.011Z,90.52
2022-10-19T03:47:34.826Z,90.14
2022-10-19T03:50:02.462Z,89.78
2022-10-19T03:52:30.418Z,89.13
2022-10-19T03:54:57.662Z,88.97
2022-10-19T03:57:25.383Z,88.58
2022-10-19T03:59:52.869Z,89.32
2022-10-19T04:02:22.867Z,88.40
2022-10-19T04:04:50.479Z,88.35
2022-10-19T04:07:18.055Z,88.35
2022-10-19T04:09:45.912Z,88.50
2022-10-19T04:12:13.402Z,88.32
2022-10-19T04:14:56.443Z,89.10
2022-10-19T04:17:25.775Z,89.82
2022-10-19T04:19:53.238Z,90.24
2022-10-19T04:22:20.719Z,89.02
2022-10-19T04:24:48.081Z,89.70
2022-10-19T04:27:15.807Z,89.38
2022-10-19T04:29:43.177Z,89.56
2022-10-19T04:32:10.790Z,89.52
2022-10-19T04:34:40.003Z,89.50
2022-10-19T04:37:07.781Z,89.93
2022-10-19T04:39:39.473Z,90.33
2022-10-19T04:42:07.172Z,90.70
2022-10-19T04:44:34.667Z,90.68
2022-10-19T04:47:02.258Z,89.86
2022-10-19T04:49:30.026Z,90.15
2022-10-19T04:51:57.576Z,90.61
2022-10-19T04:54:25.062Z,90.61
2022-10-19T04:56:54.048Z,90.59
2022-10-19T04:59:21.707Z,90.03
2022-10-19T05:01:49.423Z,89.98
2022-10-19T05:04:17.030Z,89.91
2022-10-19T05:06:45.304Z,90.13
2022-10-19T05:09:13.314Z,90.36
2022-10-19T05:11:41.050Z,90.06
2022-10-19T05:14:09.001Z,89.64
2022-10-19T05:16:36.604Z,89.78
2022-10-19T05:19:04.199Z,88.77
2022-10-19T05:21:31.921Z,88.89
2022-10-19T05:23:59.406Z,89.44
2022-10-19T05:26:27.973Z,90.48
2022-10-19T05:29:02.069Z,92.23
2022-10-19T05:31:32.056Z,93.44
2022-10-19T05:34:00.470Z,95.33
2022-10-19T05:36:34.539Z,96.89
2022-10-19T05:39:14.919Z,97.98
2022-10-19T05:41:46.692Z,97.72
2022-10-19T05:44:22.705Z,96.26
2022-10-19T05:46:51.045Z,95.88
2022-10-19T05:49:21.267Z,96.13
2022-10-19T05:51:49.229Z,96.83
2022-10-19T05:54:19.099Z,96.59
2022-10-19T05:56:48.387Z,96.14
2022-10-19T05:59:18.983Z,95.92
2022-10-19T06:01:47.002Z,96.18
2022-10-19T06:04:15.050Z,96.73
2022-10-19T06:06:43.240Z,96.80
2022-10-19T06:09:10.695Z,97.00
2022-10-19T06:11:40.064Z,97.19
2022-10-19T06:14:11.333Z,96.95
2022-10-19T06:16:38.848Z,96.09
2022-10-19T06:19:06.146Z,95.49
2022-10-19T06:21:34.032Z,96.07
2022-10-19T06:24:03.900Z,96.26
2022-10-19T06:26:32.334Z,95.79
2022-10-19T06:29:00.881Z,95.19
2022-10-19T06:31:33.922Z,95.14
2022-10-19T06:34:01.496Z,94.76
2022-10-19T06:36:32.095Z,94.77
2022-10-19T06:39:01.484Z,94.78
2022-10-19T06:41:31.183Z,94.49
2022-10-19T06:43:58.490Z,94.17
2022-10-19T06:46:26.468Z,95.28
2022-10-19T06:48:55.528Z,95.27
2022-10-19T06:51:24.522Z,95.59
2022-10-19T06:53:56.678Z,95.47
2022-10-19T06:56:25.424Z,95.35
2022-10-19T06:58:52.781Z,94.28
2022-10-19T07:01:20.246Z,95.05
2022-10-19T07:03:47.488Z,95.56
2022-10-19T07:06:14.623Z,96.05
2022-10-19T07:08:42.590Z,95.74
2022-10-19T07:11:12.096Z,95.91
2022-10-19T07:13:39.337Z,96.37
2022-10-19T07:16:15.948Z,97.17
2022-10-19T07:18:47.124Z,97.28
2022-10-19T07:21:16.189Z,97.19
2022-10-19T07:23:47.300Z,96.51
2022-10-19T07:26:21.236Z,96.28
2022-10-19T07:28:49.078Z,96.38
2022-10-19T07:31:20.314Z,96.73
2022-10-19T07:33:51.232Z,96.36
2022-10-19T07:36:18.303Z,96.67
2022-10-19T07:38:45.486Z,96.92
2022-10-19T07:41:15.271Z,96.80
2022-10-19T07:43:43.451Z,96.53
2022-10-19T07:46:18.965Z,95.92
2022-10-19T07:48:46.425Z,95.54
2022-10-19T07:51:15.440Z,95.27
2022-10-19T07:53:42.938Z,95.73
2022-10-19T07:56:17.929Z,95.62
2022-10-19T07:58:45.336Z,95.33
2022-10-19T08:01:15.314Z,94.73
2022-10-19T08:04:42.721Z,94.38
2022-10-19T08:06:29.899Z,94.10
2022-10-19T08:08:57.350Z,93.41
2022-10-19T08:11:29.932Z,93.57
2022-10-19T08:14:00.276Z,93.02
2022-10-19T08:16:40.330Z,93.38
2022-10-19T08:19:12.566Z,94.95
2022-10-19T08:21:41.744Z,96.95
2022-10-19T08:24:09.115Z,98.14
2022-10-19T08:26:38.187Z,98.21
2022-10-19T08:29:08.198Z,97.59
2022-10-19T08:31:35.370Z,97.38
2022-10-19T08:34:02.819Z,96.36
2022-10-19T08:36:35.405Z,96.76
2022-10-19T08:39:04.772Z,95.62
2022-10-19T08:41:59.640Z,94.85
2022-10-19T08:44:54.727Z,93.88
2022-10-19T08:47:26.429Z,93.11
2022-10-19T08:49:53.961Z,92.42
2022-10-19T08:52:34.231Z,91.60
2022-10-19T08:55:15.086Z,88.84
2022-10-19T08:58:13.896Z,89.56
2022-10-19T09:00:46.070Z,89.22
2022-10-19T09:04:01.041Z,88.50
2022-10-19T09:06:44.822Z,88.75
2022-10-19T09:09:15.669Z,88.45
2022-10-19T09:11:45.982Z,88.41
2022-10-19T09:14:21.846Z,88.08
2022-10-19T09:16:48.965Z,86.45
2022-10-19T09:19:25.476Z,86.68
2022-10-19T09:22:03.274Z,84.85
2022-10-19T09:24:55.635Z,85.15
2022-10-19T09:27:25.306Z,84.33
2022-10-19T09:29:57.144Z,84.72
2022-10-19T09:32:28.659Z,84.60
2022-10-19T09:34:58.838Z,83.41
2022-10-19T09:37:26.897Z,82.06
2022-10-19T09:39:55.725Z,82.01
2022-10-19T09:42:25.888Z,78.77
2022-10-19T09:44:54.651Z,79.63
2022-10-19T09:47:30.504Z,80.94
2022-10-19T09:50:19.112Z,80.06
2022-10-19T09:52:47.717Z,80.35
2022-10-19T09:55:14.737Z,78.77
2022-10-19T09:57:42.978Z,76.51
2022-10-19T10:00:21.416Z,77.89
2022-10-19T10:02:53.122Z,79.52
2022-10-19T10:05:20.781Z,78.05
2022-10-19T10:07:48.096Z,77.21
2022-10-19T10:10:30.505Z,77.39
2022-10-19T10:12:59.492Z,75.26
2022-10-19T10:15:28.978Z,72.04
2022-10-19T10:17:57.265Z,71.96
2022-10-19T10:20:28.342Z,71.31
2022-10-19T10:23:01.220Z,71.06
2022-10-19T10:25:31.044Z,70.52
2022-10-19T10:28:01.553Z,68.76
2022-10-19T10:30:34.111Z,67.09
2022-10-19T10:33:09.386Z,67.15
2022-10-19T10:35:53.463Z,67.58
2022-10-19T10:38:25.232Z,63.61
2022-10-19T10:40:54.776Z,64.39
2022-10-19T10:43:30.051Z,65.01
2022-10-19T10:46:01.856Z,62.41
2022-10-19T10:48:40.403Z,62.99
2022-10-19T10:51:18.709Z,60.15
2022-10-19T10:53:45.972Z,61.20
2022-10-19T10:56:41.046Z,59.70
2022-10-19T10:59:19.861Z,59.45
2022-10-19T11:02:14.694Z,57.94
2022-10-19T11:04:52.157Z,58.03
2022-10-19T11:07:25.106Z,59.08
2022-10-19T11:10:09.843Z,56.56
2022-10-19T11:12:45.463Z,57.92
2022-10-19T11:15:52.774Z,58.38
2022-10-19T11:18:25.160Z,56.04
2022-10-19T11:21:09.761Z,54.32
2022-10-19T11:23:48.435Z,56.48
2022-10-19T11:26:30.640Z,57.11
2022-10-19T11:29:08.205Z,55.84
2022-10-19T11:31:51.010Z,56.73
2022-10-19T11:34:30.032Z,55.01
2022-10-19T11:37:13.691Z,54.61
2022-10-19T11:40:16.869Z,57.82
2022-10-19T11:42:57.187Z,56.80
2022-10-19T11:45:37.483Z,55.94
2022-10-19T11:48:30.480Z,56.45
2022-10-19T11:51:21.664Z,58.57
2022-10-19T11:54:03.016Z,58.11
2022-10-19T11:57:01.683Z,58.36
2022-10-19T11:59:42.404Z,59.52
2022-10-19T12:02:38.320Z,59.95
2022-10-19T12:05:26.387Z,59.66
2022-10-19T12:08:11.875Z,53.30
2022-10-19T12:10:55.052Z,54.83
2022-10-19T12:13:39.925Z,50.92
2022-10-19T12:16:07.471Z,53.01
2022-10-19T12:18:48.206Z,55.95
2022-10-19T12:21:29.297Z,54.99
2022-10-19T12:23:57.801Z,56.47
2022-10-19T12:26:25.764Z,56.65
2022-10-19T12:28:57.010Z,57.40
2022-10-19T12:31:25.312Z,56.17
2022-10-19T12:34:21.194Z,55.79
2022-10-19T12:36:58.981Z,56.02
2022-10-19T12:39:50.575Z,53.37
2022-10-19T12:42:37.115Z,50.95
2022-10-19T12:45:23.072Z,46.32
2022-10-19T12:48:08.359Z,45.22
2022-10-19T12:50:50.478Z,41.60
2022-10-19T12:53:48.748Z,45.60
2022-10-19T12:56:20.181Z,46.32
2022-10-19T12:58:52.937Z,47.59
2022-10-19T13:01:23.464Z,50.48
2022-10-19T13:03:54.158Z,46.42
2022-10-19T13:06:24.059Z,47.66
2022-10-19T13:08:53.959Z,49.62
2022-10-19T13:11:21.329Z,51.26
2022-10-19T13:14:01.477Z,50.51
2022-10-19T13:16:28.533Z,53.15
2022-10-19T13:19:04.776Z,47.81
2022-10-19T13:21:56.855Z,47.02
2022-10-19T13:24:23.831Z,49.21
2022-10-19T13:26:59.719Z,46.85
2022-10-19T13:29:29.883Z,47.18
2022-10-19T13:32:32.461Z,44.36
2022-10-19T13:35:21.360Z,44.81
2022-10-19T13:38:12.906Z,45.71
2022-10-19T13:40:48.918Z,41.50
2022-10-19T13:43:24.227Z,40.12
2022-10-19T13:46:08.918Z,38.89
2022-10-19T13:48:38.920Z,39.46
2022-10-19T13:51:31.623Z,36.37
2022-10-19T13:54:17.753Z,38.20
2022-10-19T13:57:07.807Z,37.67
2022-10-19T13:59:48.694Z,41.09
2022-10-19T14:02:34.667Z,40.27
2022-10-19T14:05:38.875Z,42.04
2022-10-19T14:08:43.512Z,45.24
2022-10-19T14:11:16.123Z,46.36
2022-10-19T14:13:43.873Z,45.26
2022-10-19T14:16:19.649Z,44.52
2022-10-19T14:18:56.213Z,47.05
2022-10-19T14:21:34.642Z,45.07
2022-10-19T14:24:01.769Z,46.93
2022-10-19T14:26:32.907Z,43.05
2022-10-19T14:29:00.093Z,41.27
2022-10-19T14:31:34.366Z,46.86
2022-10-19T14:34:03.852Z,42.82
2022-10-19T14:36:35.934Z,44.51
2022-10-19T14:39:03.564Z,44.01
2022-10-19T14:44:27.900Z,43.00
2022-10-19T14:46:55.456Z,45.10
2022-10-19T14:49:22.702Z,45.34
2022-10-19T14:51:52.800Z,46.75
2022-10-19T14:54:36.045Z,46.95
2022-10-19T14:57:15.578Z,47.63
2022-10-19T14:59:46.390Z,47.23
2022-10-19T15:02:21.324Z,48.41
2022-10-19T15:04:48.625Z,46.47
2022-10-19T15:07:24.717Z,44.65
2022-10-19T15:09:55.122Z,47.34
2022-10-19T15:12:40.385Z,47.33
2022-10-19T15:15:16.685Z,47.44
2022-10-19T15:17:52.834Z,47.15
2022-10-19T15:20:54.894Z,48.78
2022-10-19T15:23:38.459Z,49.77
2022-10-19T15:26:21.288Z,47.85
2022-10-19T15:28:49.137Z,48.13
2022-10-19T15:31:27.615Z,49.61
2022-10-19T15:33:59.509Z,50.19
2022-10-19T15:36:27.938Z,50.56
2022-10-19T15:39:06.115Z,51.95
2022-10-19T15:41:45.020Z,51.57
2022-10-19T15:44:40.293Z,52.46
2022-10-19T15:47:17.996Z,53.71
2022-10-19T15:49:45.667Z,54.00
2022-10-19T15:52:23.155Z,54.36
2022-10-19T15:54:51.787Z,53.45
2022-10-19T15:57:29.972Z,54.66
2022-10-19T15:59:58.845Z,55.66
2022-10-19T16:02:26.155Z,55.94
2022-10-19T16:04:54.432Z,55.88
2022-10-19T16:07:29.403Z,55.95
2022-10-19T16:09:57.178Z,57.43
2022-10-19T16:12:26.234Z,57.73
2022-10-19T16:14:54.216Z,57.30
2022-10-19T16:17:21.307Z,58.31
2022-10-19T16:19:48.554Z,58.66
2022-10-19T16:22:16.182Z,58.65
2022-10-19T16:24:43.321Z,59.03
2022-10-19T16:27:15.021Z,59.08
2022-10-19T16:29:43.509Z,59.59
2022-10-19T16:32:10.621Z,59.54
2022-10-19T16:34:38.052Z,59.75
2022-10-19T16:37:06.960Z,60.01
2022-10-19T16:39:34.909Z,60.26
2022-10-19T16:42:02.057Z,60.25
2022-10-19T16:44:29.311Z,59.93
2022-10-19T16:46:57.404Z,60.23
2022-10-19T16:49:24.937Z,60.37
2022-10-19T16:51:54.881Z,60.84
2022-10-19T16:54:26.461Z,61.02
2022-10-19T16:56:55.497Z,61.42
2022-10-19T16:59:22.652Z,61.74
2022-10-19T17:01:49.984Z,61.51
2022-10-19T17:04:18.013Z,61.70
2022-10-19T17:06:46.150Z,61.87
2022-10-19T17:09:37.023Z,61.72
2022-10-19T17:12:01.118Z,62.09
2022-10-19T17:14:28.249Z,62.67
2022-10-19T17:16:55.384Z,62.93
2022-10-19T17:19:23.184Z,63.17
2022-10-19T17:21:50.519Z,63.17
2022-10-19T17:24:21.911Z,63.79
2022-10-19T17:26:50.983Z,64.17
2022-10-19T17:29:18.959Z,63.39
2022-10-19T17:31:46.114Z,63.60
2022-10-19T17:34:13.466Z,63.48
2022-10-19T17:36:44.718Z,63.02
2022-10-19T17:39:18.133Z,62.71
2022-10-19T17:41:47.064Z,63.17
2022-10-19T17:44:14.979Z,63.33
2022-10-19T17:46:42.376Z,62.87
2022-10-19T17:49:10.182Z,62.66
2022-10-19T17:51:38.122Z,62.63
2022-10-19T17:54:08.035Z,62.69
2022-10-19T17:56:36.452Z,63.07
2022-10-19T17:59:04.159Z,62.61
2022-10-19T18:01:31.316Z,63.24
2022-10-19T18:03:58.622Z,63.16
2022-10-19T18:06:29.594Z,63.35
2022-10-19T18:08:57.816Z,63.16
2022-10-19T18:11:46.512Z,63.43
2022-10-19T18:14:13.730Z,63.54
2022-10-19T18:16:44.710Z,63.48
2022-10-19T18:19:15.982Z,63.44
2022-10-19T18:21:44.805Z,63.98
2022-10-19T18:24:16.533Z,64.04
2022-10-19T18:26:43.695Z,64.19
2022-10-19T18:29:17.088Z,64.19
2022-10-19T18:31:44.229Z,64.06
2022-10-19T18:34:14.877Z,64.24
2022-10-19T18:36:42.005Z,64.04
2022-10-19T18:39:10.800Z,64.58
2022-10-19T18:41:38.524Z,64.85
2022-10-19T18:44:06.825Z,65.01
2022-10-19T18:46:36.753Z,64.79
2022-10-19T18:49:05.825Z,64.78
2022-10-19T18:51:32.971Z,64.53
2022-10-19T18:54:00.135Z,64.54
2022-10-19T18:56:27.663Z,65.15
2022-10-19T18:58:54.986Z,65.05
2022-10-19T19:01:24.474Z,64.87
2022-10-19T19:03:53.351Z,65.04
2022-10-19T19:06:22.850Z,64.83
2022-10-19T19:08:50.983Z,64.67
2022-10-19T19:11:26.651Z,64.73
2022-10-19T19:13:57.168Z,65.22
2022-10-19T19:16:25.907Z,64.97
2022-10-19T19:18:54.677Z,65.21
2022-10-19T19:21:24.893Z,64.82
2022-10-19T19:23:53.239Z,65.22
2022-10-19T19:26:27.836Z,65.23
2022-10-19T19:28:59.202Z,65.01
2022-10-19T19:31:30.201Z,65.42
2022-10-19T19:34:03.321Z,65.41
2022-10-19T19:36:31.050Z,65.88
2022-10-19T19:38:59.616Z,66.31
2022-10-19T19:41:28.992Z,66.12
2022-10-19T19:43:58.160Z,65.97
2022-10-19T19:46:27.074Z,66.58
2022-10-19T19:49:01.520Z,66.47
2022-10-19T19:51:30.093Z,66.71
2022-10-19T19:54:01.194Z,67.22
2022-10-19T19:56:29.364Z,67.26
2022-10-19T19:58:58.700Z,66.77
2022-10-19T20:01:27.048Z,66.78
2022-10-19T20:03:55.142Z,66.64
2022-10-19T20:06:25.797Z,66.90
2022-10-19T20:08:55.093Z,66.40
2022-10-19T20:11:24.032Z,66.30
2022-10-19T20:13:56.972Z,66.68
2022-10-19T20:16:29.323Z,66.03
2022-10-19T20:19:04.901Z,66.00
2022-10-19T20:21:33.950Z,65.99
2022-10-19T20:24:01.795Z,66.31
2022-10-19T20:26:30.230Z,66.13
2022-10-19T20:28:57.969Z,65.91
2022-10-19T20:34:01.308Z,66.61
2022-10-19T20:36:28.790Z,66.42
2022-10-19T20:38:58.066Z,66.56
2022-10-19T20:41:27.961Z,66.40
2022-10-19T20:43:55.801Z,66.87
2022-10-19T20:46:26.029Z,67.16
2022-10-19T20:48:54.839Z,67.02
2022-10-19T20:51:30.722Z,67.15
2022-10-19T20:54:02.310Z,66.94
2022-10-19T20:56:31.927Z,67.64
2022-10-19T20:59:14.525Z,67.70
2022-10-19T21:01:44.230Z,67.66
2022-10-19T21:04:15.035Z,67.95
2022-10-19T21:06:44.647Z,68.09
2022-10-19T21:09:16.065Z,68.23
2022-10-19T21:11:45.522Z,68.25
2022-10-19T21:14:25.208Z,68.63
2022-10-19T21:16:57.149Z,68.58
2022-10-19T21:19:26.292Z,68.41
2022-10-19T21:21:58.571Z,68.10
2022-10-19T21:24:29.547Z,68.44
2022-10-19T21:26:57.017Z,68.14
2022-10-19T21:29:24.506Z,68.94
2022-10-19T21:31:53.065Z,68.92
2022-10-19T21:34:26.057Z,68.69
2022-10-19T21:36:53.775Z,68.88
2022-10-19T21:39:21.295Z,69.17
2022-10-19T21:41:49.697Z,68.47
2022-10-19T21:44:18.033Z,68.05
2022-10-19T21:47:48.986Z,68.48
2022-10-19T21:50:17.547Z,67.99
2022-10-19T21:52:45.035Z,67.99
2022-10-19T21:55:12.634Z,69.21
2022-10-19T21:57:40.239Z,70.04
2022-10-19T22:00:08.005Z,70.63
2022-10-19T22:02:35.797Z,69.76
2022-10-19T22:05:03.282Z,69.47
2022-10-19T22:11:50.562Z,69.43
2022-10-19T22:14:18.399Z,70.01
2022-10-19T22:16:46.605Z,70.52
2022-10-19T22:19:15.066Z,70.81
2022-10-19T22:21:42.779Z,70.31
2022-10-19T22:24:13.872Z,70.45
2022-10-19T22:26:50.890Z,71.07
2022-10-19T22:29:18.895Z,71.73
2022-10-19T22:31:46.378Z,71.29
2022-10-19T22:34:16.619Z,70.69
2022-10-19T22:36:44.822Z,70.50
2022-10-19T22:39:12.922Z,70.57
2022-10-19T22:41:40.620Z,70.40
2022-10-19T22:44:08.350Z,70.43
2022-10-19T22:46:36.188Z,71.43
2022-10-19T22:49:16.263Z,71.88
2022-10-19T22:51:43.870Z,71.66
2022-10-19T22:54:11.474Z,72.12
2022-10-19T22:56:39.434Z,71.48
2022-10-19T22:59:07.295Z,71.80
2022-10-19T23:01:35.629Z,73.00
2022-10-19T23:04:03.455Z,72.66
2022-10-19T23:06:31.036Z,72.61
2022-10-19T23:08:58.567Z,71.84
2022-10-19T23:11:26.128Z,71.90
2022-10-19T23:13:53.614Z,72.09
2022-10-19T23:16:21.003Z,71.64
2022-10-19T23:18:49.679Z,72.43
2022-10-19T23:21:17.375Z,71.98
2022-10-19T23:23:44.993Z,72.14
2022-10-19T23:26:18.116Z,71.75
2022-10-19T23:28:47.613Z,71.78
2022-10-19T23:31:28.659Z,72.16
2022-10-19T23:33:56.501Z,71.71
2022-10-19T23:36:28.073Z,72.14
2022-10-19T23:38:56.616Z,72.02
2022-10-19T23:41:24.580Z,72.33
2022-10-19T23:43:52.329Z,71.76
2022-10-19T23:46:20.147Z,72.06
2022-10-19T23:48:47.752Z,72.28
2022-10-19T23:51:17.514Z,72.84
2022-10-19T23:53:46.902Z,72.45
2022-10-19T23:56:22.670Z,72.06
2022-10-19T23:58:51.355Z,72.12
